KBTVKPBG

Guest
Details From KBTV - BURLINGTON INTL
To KPBG - PLATTSBURGH INTL
Flight Number -
Tags generated
Created
Modified
Stats Distance 17 nm / 32 km
Max Altitude 0 ft / 0 m
Waypoints 2
Social Downloads 2
Likes 0
Share VATSIM

Download

Looking for another format? Having issues loading an existing format? Contact us
Advertisement - Login to hide

Notes

Basic altitude profile: - Ascent Rate: 2500ft/min - Ascent Speed: 250kts - Cruise Altitude: 35000ft - Cruise Speed: 420kts - Descent Rate: 1500ft/min - Descent Speed: 250kts Options: - Use NATs: yes - Use PACOTS: yes - Use low airways: yes - Use high airways: yes

Route

KBTV KPBG

ID Type Via Altitude Latitude Longitude Leg Dist Tot Dist Heading (true) Name
O KBTV APT - 0 ft / 0 m 44.47125˚ -73.15311˚ - 0 nm - BURLINGTON INTL
O KPBG APT - 0 ft / 0 m 44.65094˚ -73.46812˚ 17 nm 17 nm 309° / 309° PLATTSBURGH INTL

Altitude Profile

Advertisement - Login to hide

KBTV

Details ICAO KBTV (BTV)
Name BURLINGTON INTL
Region United States
Timezone America/New_York (UTC-5.0)
Stats Elevation 334 ft / 102 m (AMSL)
Location 44.471252° -73.153113°
Runways 2
Magnetic Variation 14.309° W

METAR

KBTV 151237Z COR 00000KT 10SM BCFG FEW002 FEW100 M18/M21 A3002

Decode

TAF

KBTV 151130Z 1512/1612 VRB04KT P6SM SKC FM152000 17006KT P6SM BKN100 FM160300 18005KT P6SM VCSH OVC060

Decode

Departure Runways

ID Width Length Bearing (true) Bearing (mag) Surface Threshold Offset Overrun Length
01 75 ft / 23 m 4,115 ft / 1,254 m 351.45° 5.76° Asphalt 226 ft / 69 m 0 ft / 0 m
15 150 ft / 46 m 8,311 ft / 2,533 m 130.91° 145.22° Asphalt 0 ft / 0 m 1,004 ft / 306 m
19 75 ft / 23 m 4,115 ft / 1,254 m 171.45° 185.76° Asphalt 505 ft / 154 m 0 ft / 0 m
33 150 ft / 46 m 8,311 ft / 2,533 m 310.93° 325.24° Asphalt 502 ft / 153 m 522 ft / 159 m

KPBG

Details ICAO KPBG (PBG)
Name PLATTSBURGH INTL
Region United States
Timezone America/New_York (UTC-5.0)
Stats Elevation 233 ft / 71 m (AMSL)
Location 44.650937° -73.468116°
Runways 1
Magnetic Variation 14.209° W

METAR

KPBG 151153Z AUTO 00000KT 10SM CLR M16/M19 A3001 RMK AO2 SLP169 T11611189 11117 21167 55000 TSNO

Decode

TAF

TAF KPBG 151130Z 1512/1612 VRB04KT P6SM SKC FM151700 17008KT P6SM BKN110 FM160300 18004KT P6SM OVC060 FM160500 17005KT P6SM VCSH OVC045

Decode

Destination Runways

ID Width Length Bearing (true) Bearing (mag) Surface Threshold Offset Overrun Length
17 200 ft / 61 m 11,763 ft / 3,585 m 157.54° 171.75° Concrete 0 ft / 0 m 1,001 ft / 305 m
35 200 ft / 61 m 11,763 ft / 3,585 m 337.55° 351.76° Concrete 0 ft / 0 m 1,001 ft / 305 m

Approach Navaids

Runway Type Ident Frequency Range Bearing (true) Bearing (mag) Slope Elevation
35 Localiser IFQV 109.70 MHz 18 nm / 33 km 337.54° 351.75° - 234 ft / 71 m (AMSL)
35 Glidescope IFQV 109.70 MHz 10 nm / 19 km 337.54° 351.75° 3.00° 234 ft / 71 m (AMSL)
35 DME IFQV 109.70 MHz 18 nm / 33 km - - - 234 ft / 71 m (AMSL)